My Meet Scores
Jordan Stygar, Patti Dunne's School Of Gymnastics - MyMeetScores.com
Top100 | Top Teams | Upcoming Meets | Completed Meets | Latest | Add Scores | Help| Support | Bookmark and Share

Jordan Stygar, Patti Dunne's School Of Gymnastics
Personal Bests
LevelVault BarsBeamFloorAA
39.4009.550 9.5009.35036.900
49.4009.325 9.6509.32537.000
59.5009.500 9.4509.45037.900
69.2258.700 8.7508.85035.525
Meet Scores
Date Meet Team Session Level Division Vault Bars Beam Floor AA
2019-12-06 Rhode Island Invitational Patti Dunne's School Of Gymnastics GF2 6 senior 9.225 2T 8.700 4 8.750 8 8.850 6T 35.525 5
2019-02-15 Presidential Classic Patti Dunne's School Of Gymnastics B12 5 L5_Grp3 9.175 4 9.100 5 9.425 2 9.300 3 37.000 2
2019-02-08 Team Challenge 2019 Patti Dunne's School Of Gymnastics B4 5 Sr B 9.500 3T 9.500 1 9.450 3 9.450 3T 37.900 1
2019-02-01 State Level 4&5 Patti Dunne's School Of Gymnastics 5 5 11B 9.150 8T 9.100 4T 8.900 11T 9.200 10T 36.350 7
2019-01-26 Manhattan Classic Patti Dunne's School Of Gymnastics 5CP 5 Junior B 9.075 5 8.800 7 9.275 1 9.100 4 36.250 3
2019-01-18 DGS Northeast Invite Patti Dunne's School Of Gymnastics 5A 5 Jr A 9.100 4 8.450 7 8.900 6 9.000 3T 35.450 5
2019-01-10 Little Boston Invitational Patti Dunne's School Of Gymnastics D04 5 JR 9.275 1T 7.750 21 8.175 20 8.775 12T 33.975 14
2018-12-14 Shen's New England Classic Patti Dunne's School Of Gymnastics 01 5 JR B 9.050 4 8.600 5 8.550 6 8.925 3 35.125 4
2018-12-08 American Gymnastics Invitational Patti Dunne's School Of Gymnastics 6 5 Child B 9.100 1T 8.550 2 8.600 2T 9.000 2 35.250 1
2018-11-17 2018 Connecticut Judge's Cup Patti Dunne's School Of Gymnastics 5 5 11 yrs. 9.150 6 8.350 10T 8.750 9 8.900 22T 35.150 6
2018-02-16 Chelsea Piers Winter Challenge Patti Dunne's School Of Gymnastics C-8 5 Sr 0.000 7T 8.525 12 9.050 3 9.050 6T 35.625 7
2018-02-09 Team Challenge 2018 Patti Dunne's School Of Gymnastics 07B 5 Sr A 9.000 5T 8.275 8 9.100 3 8.800 7 35.175 6
2018-02-03 Level 4 & 5 States Patti Dunne's School Of Gymnastics 3 4 10 C 9.400 3 8.900 6 9.375 8T 9.325 3 37.000 2
2018-01-19 Kinetic Kids Invitational Patti Dunne's School Of Gymnastics 2 4 Sr A 9.000 6T 9.100 7T 9.300 4 9.300 3 36.700 6
2018-01-12 DGS Invitational Patti Dunne's School Of Gymnastics 5B 4 10 yrs. 9.225 3 8.950 3 9.075 2 8.850 5T 36.100 1
2017-11-30 Rhode Island Invitational Patti Dunne's School Of Gymnastics BF1 4 Junior 8.950 1 8.950 3 9.075 2 9.100 3 36.075 2
2017-02-18 Chelsea Piers Winter Challenge Patti Dunne's School Of Gymnastics C-6 4 JR B 8.700 3 8.300 13 9.650 2 9.100 11 35.750 10
2017-02-10 Team Challenge 2017 Patti Dunne's School Of Gymnastics 02B 4 Inter 8.875 4 8.300 10 9.250 7 8.950 4 35.375 7
2017-02-04 2017 Connecticut Level 4 & 5 State Meets Patti Dunne's School Of Gymnastics 2 4 9 C 8.800 6T 7.750 17 9.150 4T 8.850 6T 34.550 6
2017-01-27 24th Annual American Invitational Patti Dunne's School Of Gymnastics 5B 4 Junior 9.025 2 9.325 12 9.200 12T 8.425 13T 35.975 5
2017-01-20 2017 Ultimate Beach Classic Patti Dunne's School Of Gymnastics 2 4 Senior 8.475 7T 8.900 5 8.425 4 9.175 3 34.975 4
2017-01-13 Northeast Invitational Patti Dunne's School Of Gymnastics 5 4 9 yrs. 8.550 5T 9.050 4 9.050 1 8.900 2T 35.550 2T
2016-12-02 Rhode Island Invitational Patti Dunne's School Of Gymnastics SF2 4 Intermedia 8.500 5 8.125 9 8.450 9T 8.875 7 33.950 9
2016-11-05 2016 Connecticut Judges Cup Patti Dunne's School Of Gymnastics 5 4 AllAges 8.125 21 8.600 21T 9.000 18 8.400 15T 34.125 18T
2016-04-02 2016 Connecticut Level 6 States & Level 3 State Cup Patti Dunne's School Of Gymnastics 7 3 N/A 9.400 4T 9.000 8T 9.150 1 9.350 2T 36.900 1
2016-02-13 Chelsea Piers Winter Challenge Patti Dunne's School Of Gymnastics F5 3 JR A 8.200 15 9.550 2 8.550 11T 8.700 10 35.000 10
2016-01-15 DGS Invitational Patti Dunne's School Of Gymnastics A11 3 8 yrs. 9.200 6T 8.700 6 9.500 2T 9.150 1 36.550 2T
2015-12-04 Rhode Island Invitational Patti Dunne's School Of Gymnastics WS3 3 Junior 9.150 8 9.350 3 9.050 2 8.850 5 36.400 4
2015-11-21 Pilgrim Invitational Patti Dunne's School Of Gymnastics 6 3 Junior 9.400 1T 9.000 1 8.500 8 8.800 8T 35.700 2T
2015-02-13 Team Challege 2015 Patti Dunne's School Of Gymnastics B1 3 Junior 8.350 12T 8.100 11 8.850 6 8.500 6T 33.800 10
2015-01-22 Sand Dollar/ Whitlow Invitational Patti Dunne's School Of Gymnastics A04 3 Ch A 8.700 14 8.525 10 7.875 13 8.600 13T 33.700 13
Get your scores on
a t-shirt, pin, or hoodie

Order by December 13

www.lazysuits.com